createdAt,value
2023-02-18T00:01:37.437Z,31.10
2023-02-18T00:04:04.581Z,36.88
2023-02-18T00:06:35.044Z,34.97
2023-02-18T00:09:04.889Z,37.53
2023-02-18T00:11:35.893Z,40.03
2023-02-18T00:14:06.409Z,43.05
2023-02-18T00:16:33.605Z,42.45
2023-02-18T00:19:05.433Z,35.60
2023-02-18T00:21:34.875Z,41.65
2023-02-18T00:24:02.193Z,46.55
2023-02-18T00:26:29.227Z,43.25
2023-02-18T00:28:56.454Z,41.25
2023-02-18T00:31:26.435Z,42.95
2023-02-18T00:33:54.727Z,41.42
2023-02-18T00:36:23.347Z,42.50
2023-02-18T00:38:55.053Z,43.53
2023-02-18T00:41:24.961Z,41.72
2023-02-18T00:43:52.073Z,42.90
2023-02-18T00:46:21.229Z,43.17
2023-02-18T00:48:48.343Z,39.58
2023-02-18T00:51:15.473Z,42.33
2023-02-18T00:53:42.576Z,43.17
2023-02-18T00:56:10.937Z,44.13
2023-02-18T00:58:38.436Z,42.90
2023-02-18T01:01:08.646Z,45.40
2023-02-18T01:03:38.672Z,44.17
2023-02-18T01:06:07.330Z,44.78
2023-02-18T01:08:36.901Z,49.47
2023-02-18T01:11:05.447Z,46.38
2023-02-18T01:13:32.909Z,47.40
2023-02-18T01:15:59.948Z,48.88
2023-02-18T01:18:29.996Z,46.60
2023-02-18T01:20:57.579Z,43.95
2023-02-18T01:23:24.837Z,48.72
2023-02-18T01:25:53.039Z,45.75
2023-02-18T01:28:21.489Z,51.35
2023-02-18T01:30:49.919Z,51.92
2023-02-18T01:33:18.673Z,48.63
2023-02-18T01:35:45.809Z,49.67
2023-02-18T01:38:12.925Z,47.65
2023-02-18T01:40:52.728Z,52.95
2023-02-18T01:43:22.534Z,46.40
2023-02-18T01:46:13.710Z,47.90
2023-02-18T01:48:55.124Z,46.90
2023-02-18T01:51:28.648Z,48.42
2023-02-18T01:54:06.460Z,46.60
2023-02-18T01:57:01.431Z,49.58
2023-02-18T01:59:37.360Z,45.43
2023-02-18T02:02:08.218Z,46.15
2023-02-18T02:04:35.426Z,46.45
2023-02-18T02:07:03.557Z,47.72
2023-02-18T02:09:33.125Z,45.38
2023-02-18T02:12:40.440Z,39.95
2023-02-18T02:15:24.158Z,46.75
2023-02-18T02:18:17.058Z,44.97
2023-02-18T02:21:38.869Z,41.08
2023-02-18T02:24:39.952Z,37.30
2023-02-18T02:27:21.423Z,37.83
2023-02-18T02:30:07.122Z,37.53
2023-02-18T02:32:51.237Z,35.38
2023-02-18T02:35:39.171Z,35.08
2023-02-18T02:38:40.124Z,36.13
2023-02-18T02:41:19.595Z,32.60
2023-02-18T02:44:11.247Z,28.38
2023-02-18T02:46:45.354Z,28.10
2023-02-18T02:52:13.422Z,30.05
2023-02-18T02:54:40.619Z,30.45
2023-02-18T02:57:13.855Z,31.63
2023-02-18T03:00:01.326Z,30.67
2023-02-18T03:02:39.021Z,26.98
2023-02-18T03:05:23.896Z,27.63
2023-02-18T03:08:04.788Z,26.42
2023-02-18T03:10:44.621Z,28.15
2023-02-18T03:13:32.601Z,23.23
2023-02-18T03:16:17.582Z,23.50
2023-02-18T03:18:59.803Z,25.52
2023-02-18T03:21:42.158Z,27.85
2023-02-18T03:24:27.488Z,25.15
2023-02-18T03:27:04.385Z,25.30
2023-02-18T03:29:33.555Z,24.25
2023-02-18T03:32:06.874Z,22.73
2023-02-18T03:34:41.766Z,21.95
2023-02-18T03:37:12.224Z,20.70
2023-02-18T03:39:46.274Z,20.98
2023-02-18T03:42:14.070Z,22.88
2023-02-18T03:44:41.275Z,16.42
2023-02-18T03:47:08.572Z,17.13
2023-02-18T03:49:35.644Z,17.23
2023-02-18T03:52:02.773Z,15.20
2023-02-18T03:54:29.749Z,13.88
2023-02-18T03:56:56.817Z,13.45
2023-02-18T03:59:23.744Z,14.15
2023-02-18T04:01:50.775Z,14.23
2023-02-18T04:04:17.816Z,13.43
2023-02-18T04:06:44.845Z,12.43
2023-02-18T04:09:11.931Z,11.05
2023-02-18T04:11:41.114Z,10.57
2023-02-18T04:14:08.903Z,9.80
2023-02-18T04:16:36.152Z,9.43
2023-02-18T04:19:03.187Z,9.73
2023-02-18T04:21:30.429Z,10.07
2023-02-18T04:23:57.468Z,9.27
2023-02-18T04:26:24.453Z,7.35
2023-02-18T04:28:51.619Z,7.80
2023-02-18T04:31:18.725Z,7.82
2023-02-18T04:33:46.565Z,8.10
2023-02-18T04:36:13.584Z,7.45
2023-02-18T04:38:42.054Z,7.40
2023-02-18T04:41:09.081Z,6.63
2023-02-18T04:43:36.141Z,6.10
2023-02-18T04:46:03.305Z,6.93
2023-02-18T04:48:30.855Z,5.82
2023-02-18T04:50:57.810Z,5.03
2023-02-18T04:53:24.813Z,5.50
2023-02-18T04:55:53.308Z,4.43
2023-02-18T04:58:21.472Z,4.90
2023-02-18T05:00:48.665Z,4.75
2023-02-18T05:03:16.314Z,6.40
2023-02-18T05:05:43.440Z,5.20
2023-02-18T05:08:10.409Z,3.88
2023-02-18T05:10:39.024Z,3.45
2023-02-18T05:13:06.135Z,3.20
2023-02-18T05:15:33.286Z,3.45
2023-02-18T05:18:00.376Z,3.53
2023-02-18T05:20:28.068Z,3.13
2023-02-18T05:22:55.082Z,3.33
2023-02-18T05:25:22.193Z,3.80
2023-02-18T05:27:49.237Z,3.97
2023-02-18T05:30:16.342Z,3.28
2023-02-18T05:32:43.365Z,4.00
2023-02-18T05:35:10.622Z,3.22
2023-02-18T05:37:37.674Z,3.25
2023-02-18T05:40:06.185Z,2.50
2023-02-18T05:42:33.215Z,4.65
2023-02-18T05:45:00.763Z,5.30
2023-02-18T05:47:27.860Z,3.13
2023-02-18T05:49:56.037Z,3.63
2023-02-18T05:52:23.221Z,2.58
2023-02-18T05:54:50.285Z,3.17
2023-02-18T05:57:17.424Z,2.35
2023-02-18T05:59:44.441Z,2.60
2023-02-18T06:02:11.374Z,3.00
2023-02-18T06:04:39.263Z,3.45
2023-02-18T06:07:06.572Z,2.95
2023-02-18T06:09:33.622Z,4.72
2023-02-18T06:12:00.713Z,2.83
2023-02-18T06:14:27.977Z,2.35
2023-02-18T06:16:54.967Z,2.60
2023-02-18T06:19:21.990Z,3.35
2023-02-18T06:21:48.973Z,3.17
2023-02-18T06:24:15.994Z,3.33
2023-02-18T06:26:43.011Z,2.78
2023-02-18T06:29:09.979Z,2.72
2023-02-18T06:31:37.024Z,3.42
2023-02-18T06:34:04.105Z,3.20
2023-02-18T06:36:31.158Z,3.50
2023-02-18T06:38:59.259Z,3.80
2023-02-18T06:41:26.272Z,3.72
2023-02-18T06:43:53.311Z,3.67
2023-02-18T06:46:20.567Z,3.65
2023-02-18T06:48:48.243Z,3.83
2023-02-18T06:51:16.194Z,3.78
2023-02-18T06:53:45.594Z,4.22
2023-02-18T06:56:12.716Z,5.28
2023-02-18T06:58:39.678Z,4.60
2023-02-18T07:01:06.965Z,4.53
2023-02-18T07:03:34.646Z,5.78
2023-02-18T07:06:01.581Z,5.38
2023-02-18T07:08:30.813Z,4.57
2023-02-18T07:10:57.810Z,4.93
2023-02-18T07:13:24.822Z,5.82
2023-02-18T07:15:51.816Z,7.35
2023-02-18T07:18:18.832Z,6.68
2023-02-18T07:20:46.645Z,7.05
2023-02-18T07:23:13.571Z,8.05
2023-02-18T07:25:41.041Z,7.75
2023-02-18T07:28:08.028Z,8.18
2023-02-18T07:30:35.067Z,8.45
2023-02-18T07:33:03.994Z,8.95
2023-02-18T07:35:31.341Z,9.32
2023-02-18T07:37:58.284Z,12.57
2023-02-18T07:40:25.267Z,9.82
2023-02-18T07:42:52.273Z,8.85
2023-02-18T07:45:19.491Z,10.07
2023-02-18T07:47:46.557Z,12.32
2023-02-18T07:50:13.600Z,10.82
2023-02-18T07:52:40.636Z,9.90
2023-02-18T07:55:08.575Z,10.75
2023-02-18T07:57:55.610Z,7.65
2023-02-18T08:00:23.009Z,13.23
2023-02-18T08:02:49.937Z,11.07
2023-02-18T08:05:16.934Z,9.07
2023-02-18T08:07:44.108Z,9.88
2023-02-18T08:10:12.961Z,9.98
2023-02-18T08:12:39.964Z,10.43
2023-02-18T08:15:07.520Z,8.68
2023-02-18T08:17:34.540Z,12.35
2023-02-18T08:20:01.606Z,11.77
2023-02-18T08:22:28.572Z,12.38
2023-02-18T08:24:56.406Z,15.40
2023-02-18T08:27:24.466Z,12.23
2023-02-18T08:29:52.267Z,14.07
2023-02-18T08:32:19.270Z,15.88
2023-02-18T08:34:46.287Z,15.35
2023-02-18T08:37:13.443Z,16.67
2023-02-18T08:39:40.468Z,16.98
2023-02-18T08:42:07.807Z,15.68
2023-02-18T08:44:34.814Z,16.95
2023-02-18T08:47:01.823Z,14.02
2023-02-18T08:49:28.880Z,12.35
2023-02-18T08:51:57.688Z,15.25
2023-02-18T08:54:24.726Z,14.77
2023-02-18T08:56:56.110Z,12.95
2023-02-18T08:59:26.885Z,15.75
2023-02-18T09:01:54.086Z,12.75
2023-02-18T09:04:21.505Z,11.57
2023-02-18T09:06:49.998Z,13.15
2023-02-18T09:09:18.002Z,15.57
2023-02-18T09:11:45.929Z,14.07
2023-02-18T09:14:13.250Z,19.25
2023-02-18T09:16:41.613Z,14.85
2023-02-18T09:19:09.597Z,13.32
2023-02-18T09:21:36.831Z,16.27
2023-02-18T09:24:04.066Z,15.60
2023-02-18T09:26:34.276Z,14.82
2023-02-18T09:29:01.653Z,16.63
2023-02-18T09:31:29.807Z,12.38
2023-02-18T09:34:01.708Z,17.92
2023-02-18T09:36:29.865Z,18.48
2023-02-18T09:38:58.780Z,15.63
2023-02-18T09:41:42.707Z,15.77
2023-02-18T09:44:31.077Z,18.67
2023-02-18T09:47:05.261Z,16.55
2023-02-18T09:49:39.869Z,14.70
2023-02-18T09:52:31.789Z,14.20
2023-02-18T09:55:00.621Z,12.02
2023-02-18T09:57:46.277Z,13.80
2023-02-18T10:00:23.309Z,13.25
2023-02-18T10:02:59.013Z,16.63
2023-02-18T10:05:31.251Z,14.68
2023-02-18T10:08:24.578Z,19.13
2023-02-18T10:10:51.682Z,16.25
2023-02-18T10:13:25.039Z,14.40
2023-02-18T10:15:52.675Z,13.73
2023-02-18T10:18:33.787Z,12.93
2023-02-18T10:21:18.429Z,15.48
2023-02-18T10:24:05.301Z,14.13
2023-02-18T10:26:37.232Z,12.80
2023-02-18T10:29:10.127Z,10.73
2023-02-18T10:31:44.705Z,11.27
2023-02-18T10:34:30.716Z,10.52
2023-02-18T10:37:46.704Z,10.23
2023-02-18T10:41:01.643Z,12.75
2023-02-18T10:43:45.521Z,12.57
2023-02-18T10:46:28.998Z,14.27
2023-02-18T10:49:13.422Z,13.48
2023-02-18T10:51:50.263Z,12.30
2023-02-18T10:54:17.575Z,13.02
2023-02-18T10:56:51.428Z,9.73
2023-02-18T10:59:32.260Z,11.18
2023-02-18T11:02:05.668Z,11.27
2023-02-18T11:04:42.712Z,11.10
2023-02-18T11:07:19.209Z,7.13
2023-02-18T11:10:00.413Z,10.18
2023-02-18T11:12:46.189Z,10.10
2023-02-18T11:15:27.088Z,11.23
2023-02-18T11:17:59.414Z,15.30
2023-02-18T11:20:37.791Z,13.82
2023-02-18T11:23:07.778Z,14.45
2023-02-18T11:25:41.076Z,10.10
2023-02-18T11:28:45.146Z,11.80
2023-02-18T11:31:23.332Z,11.27
2023-02-18T11:33:56.690Z,10.70
2023-02-18T11:36:36.235Z,11.27
2023-02-18T11:39:19.849Z,8.82
2023-02-18T11:42:05.439Z,10.60
2023-02-18T11:44:56.122Z,9.00
2023-02-18T11:47:36.656Z,11.20
2023-02-18T11:50:09.583Z,11.50
2023-02-18T11:52:51.530Z,8.15
2023-02-18T11:55:31.017Z,11.55
2023-02-18T11:58:02.595Z,13.18
2023-02-18T12:00:43.802Z,14.05
2023-02-18T12:03:56.834Z,11.68
2023-02-18T12:06:33.432Z,12.60
2023-02-18T12:09:14.191Z,11.20
2023-02-18T12:11:47.967Z,9.38
2023-02-18T12:14:20.763Z,9.18
2023-02-18T12:17:56.148Z,7.63
2023-02-18T12:21:06.076Z,7.35
2023-02-18T12:24:01.819Z,9.15
2023-02-18T12:26:54.633Z,9.05
2023-02-18T12:29:56.741Z,17.98
2023-02-18T12:33:22.831Z,8.50
2023-02-18T12:38:59.573Z,10.07
2023-02-18T12:41:59.393Z,9.38
2023-02-18T12:44:36.677Z,8.35
2023-02-18T12:47:38.873Z,11.75
2023-02-18T12:50:30.838Z,12.13
2023-02-18T12:53:42.190Z,8.88
2023-02-18T12:56:43.942Z,15.15
2023-02-18T12:59:35.529Z,9.73
2023-02-18T13:02:39.617Z,9.75
2023-02-18T13:05:28.188Z,8.43
2023-02-18T13:08:07.456Z,18.67
2023-02-18T13:11:13.306Z,10.35
2023-02-18T13:14:00.748Z,11.82
2023-02-18T13:16:31.200Z,9.43
2023-02-18T13:19:44.079Z,9.63
2023-02-18T13:22:15.596Z,6.88
2023-02-18T13:24:47.675Z,7.05
2023-02-18T13:27:41.935Z,5.90
2023-02-18T13:30:38.397Z,6.38
2023-02-18T13:33:34.339Z,5.47
2023-02-18T13:36:16.736Z,4.38
2023-02-18T13:39:03.766Z,8.00
2023-02-18T13:41:38.154Z,7.25
2023-02-18T13:44:28.090Z,6.40
2023-02-18T13:46:58.402Z,5.68
2023-02-18T13:49:33.689Z,6.40
2023-02-18T13:52:04.665Z,3.92
2023-02-18T13:54:42.446Z,7.32
2023-02-18T13:57:21.676Z,9.35
2023-02-18T14:00:00.931Z,11.05
2023-02-18T14:02:36.848Z,10.20
2023-02-18T14:05:20.573Z,7.50
2023-02-18T14:08:11.040Z,8.00
2023-02-18T14:10:39.163Z,9.60
2023-02-18T14:13:22.717Z,6.55
2023-02-18T14:16:01.372Z,6.25
2023-02-18T14:18:55.216Z,9.32
2023-02-18T14:21:41.452Z,6.20
2023-02-18T14:24:11.957Z,7.72
2023-02-18T14:26:49.153Z,5.10
2023-02-18T14:29:30.365Z,6.18
2023-02-18T14:32:05.002Z,7.03
2023-02-18T14:35:06.432Z,6.60
2023-02-18T14:38:06.900Z,6.50
2023-02-18T14:41:04.614Z,7.38
2023-02-18T14:43:53.203Z,10.00
2023-02-18T14:46:35.686Z,7.50
2023-02-18T14:49:44.759Z,8.88
2023-02-18T14:52:30.512Z,7.45
2023-02-18T14:55:01.509Z,4.55
2023-02-18T14:57:44.579Z,9.15
2023-02-18T15:00:22.946Z,5.88
2023-02-18T15:02:55.080Z,6.70
2023-02-18T15:05:37.490Z,7.78
2023-02-18T15:08:26.029Z,6.78
2023-02-18T15:11:06.158Z,10.60
2023-02-18T15:13:44.253Z,7.97
2023-02-18T15:16:25.177Z,6.03
2023-02-18T15:19:03.403Z,5.07
2023-02-18T15:21:40.189Z,5.80
2023-02-18T15:24:18.830Z,5.10
2023-02-18T15:26:52.120Z,9.77
2023-02-18T15:29:24.846Z,9.88
2023-02-18T15:31:52.659Z,5.25
2023-02-18T15:34:35.577Z,10.57
2023-02-18T15:37:07.261Z,5.78
2023-02-18T15:39:38.658Z,10.52
2023-02-18T15:42:33.141Z,5.95
2023-02-18T15:45:30.459Z,4.35
2023-02-18T15:47:59.598Z,6.55
2023-02-18T15:50:30.404Z,5.13
2023-02-18T15:53:06.298Z,6.13
2023-02-18T15:55:38.845Z,7.45
2023-02-18T15:58:23.906Z,8.23
2023-02-18T16:00:57.313Z,7.47
2023-02-18T16:03:28.635Z,4.72
2023-02-18T16:06:23.637Z,7.57
2023-02-18T16:09:12.449Z,2.50
2023-02-18T16:11:45.984Z,7.03
2023-02-18T16:14:34.887Z,5.97
2023-02-18T16:17:16.574Z,7.20
2023-02-18T16:20:04.472Z,7.55
2023-02-18T16:22:33.137Z,6.85
2023-02-18T16:25:15.155Z,4.28
2023-02-18T16:27:59.144Z,7.07
2023-02-18T16:30:30.439Z,6.13
2023-02-18T16:32:58.577Z,6.32
2023-02-18T16:35:32.706Z,6.88
2023-02-18T16:38:06.926Z,8.93
2023-02-18T16:40:36.999Z,7.28
2023-02-18T16:43:32.586Z,6.60
2023-02-18T16:46:14.524Z,8.38
2023-02-18T16:48:45.414Z,6.70
2023-02-18T16:51:20.852Z,4.43
2023-02-18T16:53:48.263Z,4.53
2023-02-18T16:56:21.321Z,8.23
2023-02-18T16:58:48.336Z,5.45
2023-02-18T17:01:30.841Z,7.88
2023-02-18T17:04:01.557Z,8.60
2023-02-18T17:06:29.826Z,7.50
2023-02-18T17:08:56.784Z,7.10
2023-02-18T17:11:30.092Z,6.82
2023-02-18T17:13:59.481Z,5.82
2023-02-18T17:16:27.870Z,6.25
2023-02-18T17:18:54.911Z,8.55
2023-02-18T17:21:25.358Z,7.72
2023-02-18T17:23:52.925Z,7.40
2023-02-18T17:26:27.211Z,4.95
2023-02-18T17:31:37.867Z,7.82
2023-02-18T17:34:08.905Z,9.95
2023-02-18T17:36:35.988Z,7.35
2023-02-18T17:39:06.287Z,5.15
2023-02-18T17:41:33.418Z,9.85
2023-02-18T17:44:00.343Z,7.10
2023-02-18T17:46:27.315Z,8.98
2023-02-18T17:48:54.234Z,11.25
2023-02-18T17:51:26.214Z,12.63
2023-02-18T17:53:53.623Z,15.02
2023-02-18T17:56:21.099Z,17.33
2023-02-18T17:58:48.749Z,18.38
2023-02-18T18:01:18.456Z,20.10
2023-02-18T18:03:45.501Z,24.00
2023-02-18T18:06:18.877Z,20.98
2023-02-18T18:08:47.542Z,29.58
2023-02-18T18:11:20.737Z,25.23
2023-02-18T18:13:48.433Z,26.23
2023-02-18T18:16:17.858Z,23.83
2023-02-18T18:18:45.332Z,25.65
2023-02-18T18:21:33.695Z,24.85
2023-02-18T18:24:01.427Z,27.17
2023-02-18T18:26:29.181Z,27.65
2023-02-18T18:28:56.121Z,27.25
2023-02-18T18:31:23.107Z,31.02
2023-02-18T18:33:53.198Z,27.48
2023-02-18T18:36:24.103Z,27.60
2023-02-18T18:38:52.305Z,26.98
2023-02-18T18:41:22.672Z,28.45
2023-02-18T18:43:49.925Z,30.63
2023-02-18T18:46:17.724Z,32.67
2023-02-18T18:48:44.815Z,33.97
2023-02-18T18:51:30.001Z,34.03
2023-02-18T18:53:57.136Z,37.10
2023-02-18T18:56:24.119Z,33.25
2023-02-18T18:58:51.284Z,34.03
2023-02-18T19:01:27.220Z,32.72
2023-02-18T19:03:54.417Z,32.95
2023-02-18T19:06:22.001Z,35.83
2023-02-18T19:08:49.050Z,32.75
2023-02-18T19:11:17.380Z,34.40
2023-02-18T19:13:45.950Z,30.98
2023-02-18T19:16:26.539Z,32.67
2023-02-18T19:18:54.310Z,31.35
2023-02-18T19:21:21.393Z,30.50
2023-02-18T19:23:48.391Z,29.67
2023-02-18T19:26:18.989Z,32.38
2023-02-18T19:28:46.320Z,31.27
2023-02-18T19:31:14.023Z,39.03
2023-02-18T19:33:41.715Z,32.03
2023-02-18T19:36:11.523Z,26.90
2023-02-18T19:38:39.492Z,32.05
2023-02-18T19:41:16.872Z,43.95
2023-02-18T19:43:46.500Z,28.17
2023-02-18T19:46:17.700Z,32.90
2023-02-18T19:48:50.401Z,28.65
2023-02-18T19:51:17.749Z,31.40
2023-02-18T19:53:46.006Z,25.55
2023-02-18T19:56:13.072Z,31.38
2023-02-18T19:58:40.200Z,37.72
2023-02-18T20:01:15.202Z,24.88
2023-02-18T20:03:43.653Z,29.15
2023-02-18T20:06:20.162Z,26.23
2023-02-18T20:08:47.445Z,27.98
2023-02-18T20:11:14.447Z,30.92
2023-02-18T20:13:42.104Z,40.13
2023-02-18T20:16:12.431Z,29.77
2023-02-18T20:18:39.408Z,28.65
2023-02-18T20:21:06.489Z,24.48
2023-02-18T20:23:33.696Z,28.73
2023-02-18T20:26:06.365Z,29.60
2023-02-18T20:28:33.350Z,26.60
2023-02-18T20:31:15.103Z,28.58
2023-02-18T20:33:42.754Z,28.52
2023-02-18T20:36:13.394Z,27.58
2023-02-18T20:38:40.375Z,26.23
2023-02-18T20:41:14.694Z,26.08
2023-02-18T20:46:13.594Z,26.95
2023-02-18T20:48:40.780Z,33.33
2023-02-18T20:51:14.348Z,31.65
2023-02-18T20:53:43.485Z,29.17
2023-02-18T20:56:10.770Z,33.22
2023-02-18T20:58:38.552Z,32.00
2023-02-18T21:01:20.062Z,35.08
2023-02-18T21:03:47.757Z,35.10
2023-02-18T21:06:19.350Z,30.70
2023-02-18T21:08:49.373Z,31.13
2023-02-18T21:11:20.880Z,33.42
2023-02-18T21:13:50.751Z,31.25
2023-02-18T21:16:20.114Z,33.20
2023-02-18T21:18:47.411Z,34.85
2023-02-18T21:21:14.997Z,35.47
2023-02-18T21:23:42.011Z,30.88
2023-02-18T21:26:13.460Z,32.10
2023-02-18T21:28:41.190Z,31.83
2023-02-18T21:31:26.175Z,30.77
2023-02-18T21:33:53.575Z,28.73
2023-02-18T21:36:21.007Z,41.22
2023-02-18T21:38:53.259Z,34.97
2023-02-18T21:41:20.805Z,52.15
2023-02-18T21:43:48.713Z,46.90
2023-02-18T21:46:28.942Z,43.50
2023-02-18T21:49:03.301Z,42.58
2023-02-18T21:54:44.342Z,38.92
2023-02-18T21:57:15.195Z,36.10
2023-02-18T21:59:42.720Z,35.28
2023-02-18T22:02:17.211Z,34.53
2023-02-18T22:04:45.579Z,36.65
2023-02-18T22:07:12.709Z,35.47
2023-02-18T22:09:40.068Z,37.67
2023-02-18T22:12:08.263Z,36.13
2023-02-18T22:14:35.278Z,35.88
2023-02-18T22:17:02.350Z,33.60
2023-02-18T22:19:29.342Z,35.13
2023-02-18T22:21:56.719Z,34.33
2023-02-18T22:24:24.362Z,34.20
2023-02-18T22:26:51.315Z,34.22
2023-02-18T22:29:20.493Z,35.38
2023-02-18T22:31:49.491Z,33.97
2023-02-18T22:34:17.312Z,33.97
2023-02-18T22:36:44.356Z,32.90
2023-02-18T22:39:13.292Z,36.20
2023-02-18T22:41:40.273Z,37.25
2023-02-18T22:44:12.650Z,34.88
2023-02-18T22:46:40.157Z,32.92
2023-02-18T22:49:08.513Z,35.08
2023-02-18T22:51:39.899Z,36.75
2023-02-18T22:54:16.230Z,34.97
2023-02-18T22:56:45.898Z,40.00
2023-02-18T22:59:17.086Z,36.22
2023-02-18T23:01:49.538Z,33.40
2023-02-18T23:04:19.116Z,32.85
2023-02-18T23:06:47.224Z,34.20
2023-02-18T23:09:19.979Z,38.70
2023-02-18T23:11:54.520Z,37.20
2023-02-18T23:14:22.059Z,35.47
2023-02-18T23:17:10.621Z,39.47
2023-02-18T23:19:39.833Z,38.17
2023-02-18T23:22:08.430Z,38.05
2023-02-18T23:24:39.518Z,34.03
2023-02-18T23:27:10.173Z,34.03
2023-02-18T23:29:38.195Z,31.45
2023-02-18T23:32:06.612Z,33.28
2023-02-18T23:34:34.860Z,32.58
2023-02-18T23:37:01.957Z,36.10
2023-02-18T23:39:29.580Z,33.78
2023-02-18T23:41:56.845Z,36.15
2023-02-18T23:44:26.386Z,35.42
2023-02-18T23:46:53.745Z,31.60
2023-02-18T23:49:24.878Z,34.35
2023-02-18T23:51:55.280Z,33.38
2023-02-18T23:54:23.840Z,35.30
2023-02-18T23:56:50.990Z,37.35
2023-02-18T23:59:18.527Z,37.03
